Cundiff, Kentucky
Current Conditions -  °F | °C
As of 9:56 AM on Thursday 23 Oct 2014 (Local Time) from KEKQ Reporting Station
Scattered Clouds Scattered Clouds  
Wind Chill: 53°   Ceiling: Unl
Heat Index: 53°   Visibility: 10mi
Dew Point: 41°   Wind: 9mph
Humidity: 64%   Direction: 100°E
Pressure: 30.25"   Gusts: NA
Location:  37.112°N, 85.2724°W
Report Text: KEKQ 231456Z AUTO 10008KT 10SM SCT022 12/05 A3025 RMK AO2 53000 T01160050 SLP250
Loading
Personal Weather Stations






























Interactive Weather Map
Tropical Storm Tracking
New forecast layout! Learn more

10-Day Weather Forecast

Advertisements
Track Severe Weather on mobile